Time;durP1;ratioP1;P1;durP2;ratioP2;P2;SDS_P1;SDS_P2;PMS_P1;PMS_P2;Temp;Humidity;BMP_temperature;BMP_pressure;BME280_temperature;BME280_humidity;BME280_pressure;Samples;Min_cycle;Max_cycle;Signal;HPM_P1;HPM_P2
2023/08/09 00:01:57;;;;;;;;;;;;;;;;;;5079497;28;19923;-83
2023/08/09 00:04:23;;;;;;;;;;;;;;;;;;5087809;28;19971;-82
2023/08/09 00:06:49;;;;;;;;;;;;;;;;;;5108220;27;19927;-83
2023/08/09 00:19:37;;;;;;;;;;;;;;;;;;5015799;28;19989;-78
2023/08/09 00:22:03;;;;;;;;;;;;;;;;;;5019299;28;20106;-78
2023/08/09 00:24:29;;;;;;;;;;;;;;;;;;5019402;28;19929;-80
2023/08/09 00:26:54;;;;;;;;;;;;;;;;;;5036389;28;19929;-84
2023/08/09 00:29:20;;;;;;;;;;;;;;;;;;5035365;28;19935;-83
2023/08/09 00:31:46;;;;;;;;;;;;;;;;;;5018555;28;19944;-76
2023/08/09 00:34:12;;;;;;;;;;;;;;;;;;5033357;28;20215;-77
2023/08/09 00:36:38;;;;;;;;;;;;;;;;;;5034171;28;19929;-84
2023/08/09 00:39:06;;;;;;;;;;;;;;;;;;5038375;28;20371;-75
2023/08/09 00:41:32;;;;;;;;;;;;;;;;;;5036924;28;20269;-82
2023/08/09 00:43:58;;;;;;;;;;;;;;;;;;5025380;28;19936;-77
2023/08/09 00:46:23;;;;;;;;;;;;;;;;;;5042307;28;19933;-77
2023/08/09 00:48:50;;;;;;;;;;;;;;;;;;5026740;28;20330;-76
2023/08/09 00:51:18;;;;;;;;;;;;;;;;;;5038857;28;19924;-77
2023/08/09 00:53:44;;;;;;;;;;;;;;;;;;5042780;28;19929;-79
2023/08/09 00:56:10;;;;;;;;;;;;;;;;;;5022996;28;19928;-77
2023/08/09 00:58:36;;;;;;;;;;;;;;;;;;5025240;28;20307;-78
2023/08/09 01:01:01;;;;;;;;;;;;;;;;;;5040352;28;19936;-78
2023/08/09 01:03:27;;;;;;;;;;;;;;;;;;5023813;28;19971;-78
2023/08/09 01:05:53;;;;;;;;;;;;;;;;;;5024730;28;20402;-78
2023/08/09 01:08:19;;;;;;;;;;;;;;;;;;5025674;28;20020;-77
2023/08/09 01:10:45;;;;;;;;;;;;;;;;;;5038283;28;19931;-80
2023/08/09 01:13:12;;;;;;;;;;;;;;;;;;5042389;28;19928;-78
2023/08/09 01:15:39;;;;;;;;;;;;;;;;;;5027184;28;19929;-77
2023/08/09 01:18:05;;;;;;;;;;;;;;;;;;5027033;28;19928;-77
2023/08/09 01:20:31;;;;;;;;;;;;;;;;;;5027355;28;19979;-80
2023/08/09 01:22:57;;;;;;;;;;;;;;;;;;5025917;28;19964;-79
2023/08/09 01:25:24;;;;;;;;;;;;;;;;;;5025623;28;19940;-79
2023/08/09 01:27:50;;;;;;;;;;;;;;;;;;5027067;28;19928;-78
2023/08/09 01:30:16;;;;;;;;;;;;;;;;;;5024290;28;19928;-84
2023/08/09 01:32:42;;;;;;;;;;;;;;;;;;5027804;28;19939;-77
2023/08/09 01:35:08;;;;;;;;;;;;;;;;;;5022809;28;19929;-80
2023/08/09 01:37:34;;;;;;;;;;;;;;;;;;5027789;28;20889;-79
2023/08/09 01:39:59;;;;;;;;;;;;;;;;;;5024347;28;20019;-81
2023/08/09 01:42:25;;;;;;;;;;;;;;;;;;5042179;28;20300;-77
2023/08/09 01:44:52;;;;;;;;;;;;;;;;;;5025202;28;19929;-81
2023/08/09 01:47:18;;;;;;;;;;;;;;;;;;5024091;28;19929;-78
2023/08/09 01:49:44;;;;;;;;;;;;;;;;;;5024298;28;19951;-78
2023/08/09 01:52:11;;;;;;;;;;;;;;;;;;5040983;28;19980;-83
2023/08/09 01:54:37;;;;;;;;;;;;;;;;;;5040978;28;19928;-76
2023/08/09 01:57:03;;;;;;;;;;;;;;;;;;5024076;28;19959;-78
2023/08/09 01:59:29;;;;;;;;;;;;;;;;;;5022810;28;20407;-77
2023/08/09 02:01:54;;;;;;;;;;;;;;;;;;5039670;28;19933;-75
2023/08/09 02:04:20;;;;;;;;;;;;;;;;;;5040269;28;20207;-77
2023/08/09 02:06:46;;;;;;;;;;;;;;;;;;5023976;28;19929;-77
2023/08/09 02:09:12;;;;;;;;;;;;;;;;;;5024102;28;19929;-77
2023/08/09 02:11:38;;;;;;;;;;;;;;;;;;5044802;28;20019;-79
2023/08/09 02:14:04;;;;;;;;;;;;;;;;;;5039048;28;19929;-76
2023/08/09 02:16:30;;;;;;;;;;;;;;;;;;5041768;28;19924;-83
2023/08/09 02:18:56;;;;;;;;;;;;;;;;;;5022140;28;20722;-79
2023/08/09 02:21:22;;;;;;;;;;;;;;;;;;5008562;28;19924;-79
2023/08/09 02:23:48;;;;;;;;;;;;;;;;;;5022148;28;19948;-84
2023/08/09 02:26:15;;;;;;;;;;;;;;;;;;5024783;28;20099;-75
2023/08/09 02:28:41;;;;;;;;;;;;;;;;;;5025303;28;20016;-81
2023/08/09 02:31:10;;;;;;;;;;;;;;;;;;5037135;28;19929;-82
2023/08/09 02:33:36;;;;;;;;;;;;;;;;;;5040499;28;19925;-75
2023/08/09 02:36:02;;;;;;;;;;;;;;;;;;5017726;28;19944;-84
2023/08/09 02:38:28;;;;;;;;;;;;;;;;;;5025307;28;20384;-78
2023/08/09 02:40:54;;;;;;;;;;;;;;;;;;5020050;28;19929;-82
2023/08/09 02:43:20;;;;;;;;;;;;;;;;;;5038060;28;19960;-81
2023/08/09 02:45:46;;;;;;;;;;;;;;;;;;5043649;28;19924;-85
2023/08/09 02:48:12;;;;;;;;;;;;;;;;;;5025001;28;19967;-81
2023/08/09 02:50:38;;;;;;;;;;;;;;;;;;5022010;28;19925;-78
2023/08/09 02:53:04;;;;;;;;;;;;;;;;;;5040824;28;19988;-82
2023/08/09 02:55:31;;;;;;;;;;;;;;;;;;5023696;28;19932;-84
2023/08/09 02:57:57;;;;;;;;;;;;;;;;;;5021694;28;19982;-79
2023/08/09 03:00:23;;;;;;;;;;;;;;;;;;5022587;28;19937;-83
2023/08/09 03:02:49;;;;;;;;;;;;;;;;;;5036436;28;19928;-76
2023/08/09 03:05:15;;;;;;;;;;;;;;;;;;5014951;28;20027;-85
2023/08/09 03:07:41;;;;;;;;;;;;;;;;;;5022426;28;19935;-86
2023/08/09 03:10:07;;;;;;;;;;;;;;;;;;5038306;28;20520;-83
2023/08/09 03:12:33;;;;;;;;;;;;;;;;;;5041772;28;19936;-85
2023/08/09 03:14:59;;;;;;;;;;;;;;;;;;5031196;28;19929;-82
2023/08/09 03:17:25;;;;;;;;;;;;;;;;;;5022965;28;19979;-79
2023/08/09 03:19:51;;;;;;;;;;;;;;;;;;5037322;28;19976;-80
2023/08/09 03:22:17;;;;;;;;;;;;;;;;;;5024947;28;20023;-83
2023/08/09 03:24:43;;;;;;;;;;;;;;;;;;5024512;28;19929;-76
2023/08/09 03:27:09;;;;;;;;;;;;;;;;;;5024954;28;20332;-75
2023/08/09 03:29:34;;;;;;;;;;;;;;;;;;5039201;28;20000;-81
2023/08/09 03:32:00;;;;;;;;;;;;;;;;;;5040897;28;20008;-77
2023/08/09 03:34:26;;;;;;;;;;;;;;;;;;5023614;28;19929;-77
2023/08/09 03:36:52;;;;;;;;;;;;;;;;;;5034064;28;19935;-76
2023/08/09 03:39:18;;;;;;;;;;;;;;;;;;5007074;28;19979;-79
2023/08/09 03:41:44;;;;;;;;;;;;;;;;;;5040526;28;19932;-76
2023/08/09 03:44:10;;;;;;;;;;;;;;;;;;5022882;28;19959;-76
2023/08/09 03:46:36;;;;;;;;;;;;;;;;;;5037987;28;19943;-78
2023/08/09 03:49:02;;;;;;;;;;;;;;;;;;5022943;28;19932;-76
2023/08/09 03:51:28;;;;;;;;;;;;;;;;;;5020245;28;19935;-77
2023/08/09 03:53:54;;;;;;;;;;;;;;;;;;5021851;28;19931;-78
2023/08/09 03:56:20;;;;;;;;;;;;;;;;;;5039834;28;19936;-76
2023/08/09 03:58:46;;;;;;;;;;;;;;;;;;5018353;28;19925;-78
2023/08/09 04:01:12;;;;;;;;;;;;;;;;;;5039959;28;19940;-76
2023/08/09 04:03:38;;;;;;;;;;;;;;;;;;5022266;28;20417;-75
2023/08/09 04:06:05;;;;;;;;;;;;;;;;;;5021433;28;19924;-78
2023/08/09 04:08:31;;;;;;;;;;;;;;;;;;5037791;28;19925;-78
2023/08/09 04:10:57;;;;;;;;;;;;;;;;;;5022688;28;19936;-85
2023/08/09 04:13:23;;;;;;;;;;;;;;;;;;5040764;28;20342;-84
2023/08/09 04:15:49;;;;;;;;;;;;;;;;;;5038545;28;19933;-75
2023/08/09 04:18:16;;;;;;;;;;;;;;;;;;5038505;28;19971;-84
2023/08/09 04:20:42;;;;;;;;;;;;;;;;;;5025700;28;19931;-84
2023/08/09 04:23:08;;;;;;;;;;;;;;;;;;5041288;28;19928;-83
2023/08/09 04:25:34;;;;;;;;;;;;;;;;;;5039670;28;19924;-83
2023/08/09 04:28:01;;;;;;;;;;;;;;;;;;5038950;28;19968;-85
2023/08/09 04:30:27;;;;;;;;;;;;;;;;;;5035107;28;19929;-85
2023/08/09 04:32:53;;;;;;;;;;;;;;;;;;5021342;28;19987;-83
2023/08/09 04:35:19;;;;;;;;;;;;;;;;;;5021212;28;19937;-83
2023/08/09 04:37:45;;;;;;;;;;;;;;;;;;5038574;28;19925;-82
2023/08/09 04:40:11;;;;;;;;;;;;;;;;;;5036404;28;20467;-83
2023/08/09 04:42:37;;;;;;;;;;;;;;;;;;5016962;28;19928;-81
2023/08/09 04:45:03;;;;;;;;;;;;;;;;;;5022637;28;20284;-83
2023/08/09 04:47:29;;;;;;;;;;;;;;;;;;5035953;28;20016;-84
2023/08/09 04:49:55;;;;;;;;;;;;;;;;;;5038858;28;19933;-78
2023/08/09 04:52:21;;;;;;;;;;;;;;;;;;5039218;28;19932;-84
2023/08/09 04:54:47;;;;;;;;;;;;;;;;;;5039354;28;19928;-83
2023/08/09 04:57:13;;;;;;;;;;;;;;;;;;5021424;28;19929;-81
2023/08/09 04:59:39;;;;;;;;;;;;;;;;;;5019928;28;20417;-83
2023/08/09 05:02:05;;;;;;;;;;;;;;;;;;5019173;28;19964;-84
2023/08/09 05:04:31;;;;;;;;;;;;;;;;;;5021364;28;19931;-84
2023/08/09 05:06:57;;;;;;;;;;;;;;;;;;5021925;28;19928;-85
2023/08/09 05:09:23;;;;;;;;;;;;;;;;;;5037352;28;19929;-85
2023/08/09 05:11:49;;;;;;;;;;;;;;;;;;5035655;28;19929;-84
2023/08/09 05:14:15;;;;;;;;;;;;;;;;;;5035453;28;20108;-79
2023/08/09 05:16:41;;;;;;;;;;;;;;;;;;5021409;28;19986;-83
2023/08/09 05:19:07;;;;;;;;;;;;;;;;;;5039611;28;19933;-84
2023/08/09 05:21:33;;;;;;;;;;;;;;;;;;5040390;28;20430;-84
2023/08/09 05:23:58;;;;;;;;;;;;;;;;;;5039303;28;19928;-82
2023/08/09 05:26:24;;;;;;;;;;;;;;;;;;5035143;28;20273;-83
2023/08/09 05:28:51;;;;;;;;;;;;;;;;;;5041308;28;19979;-83
2023/08/09 05:31:17;;;;;;;;;;;;;;;;;;5025765;28;19932;-84
2023/08/09 05:33:43;;;;;;;;;;;;;;;;;;5025810;28;19928;-83
2023/08/09 05:36:09;;;;;;;;;;;;;;;;;;5042840;28;19987;-78
2023/08/09 05:38:35;;;;;;;;;;;;;;;;;;5010205;28;19951;-77
2023/08/09 05:41:01;;;;;;;;;;;;;;;;;;5026346;28;19943;-78
2023/08/09 05:43:27;;;;;;;;;;;;;;;;;;5042045;28;19925;-82
2023/08/09 05:45:53;;;;;;;;;;;;;;;;;;5041661;28;19936;-82
2023/08/09 05:48:19;;;;;;;;;;;;;;;;;;5023913;28;20381;-78
2023/08/09 05:50:44;;;;;;;;;;;;;;;;;;5024298;28;20034;-83
2023/08/09 05:53:10;;;;;;;;;;;;;;;;;;5040739;28;20321;-80
2023/08/09 05:55:36;;;;;;;;;;;;;;;;;;5011854;28;19925;-79
2023/08/09 05:58:03;;;;;;;;;;;;;;;;;;5031584;28;19933;-80
2023/08/09 06:00:29;;;;;;;;;;;;;;;;;;5038005;28;20030;-77
2023/08/09 06:02:55;;;;;;;;;;;;;;;;;;5034193;28;19968;-77
2023/08/09 06:05:25;;;;;;;;;;;;;;;;;;5032615;28;19999;-77
2023/08/09 06:07:51;;;;;;;;;;;;;;;;;;5036260;28;19929;-81
2023/08/09 06:10:17;;;;;;;;;;;;;;;;;;5032304;28;19954;-82
2023/08/09 06:12:43;;;;;;;;;;;;;;;;;;5036446;28;19928;-75
2023/08/09 06:15:09;;;;;;;;;;;;;;;;;;5015140;28;19929;-77
2023/08/09 06:17:35;;;;;;;;;;;;;;;;;;5022450;28;19929;-82
2023/08/09 06:20:01;;;;;;;;;;;;;;;;;;5036945;28;19937;-76
2023/08/09 06:22:27;;;;;;;;;;;;;;;;;;5039766;28;19928;-76
2023/08/09 06:24:52;;;;;;;;;;;;;;;;;;5036881;28;19971;-76
2023/08/09 06:27:19;;;;;;;;;;;;;;;;;;5025087;28;21763;-76
2023/08/09 06:29:45;;;;;;;;;;;;;;;;;;5036866;28;19936;-77
2023/08/09 06:32:11;;;;;;;;;;;;;;;;;;5039398;28;19929;-78
2023/08/09 06:34:36;;;;;;;;;;;;;;;;;;5020039;28;19986;-77
2023/08/09 06:37:02;;;;;;;;;;;;;;;;;;5038243;28;20477;-80
2023/08/09 06:39:28;;;;;;;;;;;;;;;;;;5023436;28;19928;-77
2023/08/09 06:41:54;;;;;;;;;;;;;;;;;;5023152;28;19955;-77
2023/08/09 06:44:20;;;;;;;;;;;;;;;;;;5023523;28;20415;-82
2023/08/09 06:46:47;;;;;;;;;;;;;;;;;;5025953;28;19928;-78
2023/08/09 06:49:13;;;;;;;;;;;;;;;;;;5025768;28;19932;-78
2023/08/09 06:51:39;;;;;;;;;;;;;;;;;;5021692;28;20387;-76
2023/08/09 06:54:05;;;;;;;;;;;;;;;;;;5042393;28;19936;-81
2023/08/09 06:56:31;;;;;;;;;;;;;;;;;;5007743;28;19932;-74
2023/08/09 06:58:57;;;;;;;;;;;;;;;;;;5026673;28;19952;-75
2023/08/09 07:01:23;;;;;;;;;;;;;;;;;;5018007;28;20509;-75
2023/08/09 07:03:50;;;;;;;;;;;;;;;;;;5037717;28;20016;-76
2023/08/09 07:06:16;;;;;;;;;;;;;;;;;;5035754;28;19940;-80
2023/08/09 07:08:42;;;;;;;;;;;;;;;;;;5009293;28;19929;-77
2023/08/09 07:11:08;;;;;;;;;;;;;;;;;;5019130;28;19935;-75
2023/08/09 07:13:34;;;;;;;;;;;;;;;;;;5018697;28;19929;-77
2023/08/09 07:16:00;;;;;;;;;;;;;;;;;;5017508;28;19944;-76
2023/08/09 07:18:25;;;;;;;;;;;;;;;;;;5020916;28;20387;-77
2023/08/09 07:20:51;;;;;;;;;;;;;;;;;;5030763;28;19971;-76
2023/08/09 07:23:17;;;;;;;;;;;;;;;;;;5019187;28;19932;-76
2023/08/09 07:25:43;;;;;;;;;;;;;;;;;;5000384;28;20519;-79
2023/08/09 07:28:11;;;;;;;;;;;;;;;;;;5038175;28;19983;-78
2023/08/09 07:30:37;;;;;;;;;;;;;;;;;;5018598;28;20957;-78
2023/08/09 07:33:03;;;;;;;;;;;;;;;;;;5016145;28;19925;-76
2023/08/09 07:35:29;;;;;;;;;;;;;;;;;;5010037;28;20002;-76
2023/08/09 07:38:06;;;;;;;;;;;;;;;;;;5034929;28;19929;-76
2023/08/09 07:40:39;;;;;;;;;;;;;;;;;;5016413;28;20019;-76
2023/08/09 07:43:05;;;;;;;;;;;;;;;;;;5034334;28;19924;-75
2023/08/09 07:45:30;;;;;;;;;;;;;;;;;;5032960;28;20025;-76
2023/08/09 07:47:56;;;;;;;;;;;;;;;;;;5035050;28;20012;-76
2023/08/09 07:50:22;;;;;;;;;;;;;;;;;;5035348;28;19940;-79
2023/08/09 07:52:48;;;;;;;;;;;;;;;;;;5036723;28;19929;-80
2023/08/09 07:55:14;;;;;;;;;;;;;;;;;;5037147;28;19925;-78
2023/08/09 07:57:40;;;;;;;;;;;;;;;;;;5016835;28;19983;-77
2023/08/09 08:00:14;;;;;;;;;;;;;;;;;;5016997;28;20295;-81
2023/08/09 08:02:39;;;;;;;;;;;;;;;;;;5019714;28;19977;-76
2023/08/09 08:05:06;;;;;;;;;;;;;;;;;;5034742;28;19951;-79
2023/08/09 08:07:32;;;;;;;;;;;;;;;;;;5036279;28;20019;-77
2023/08/09 08:09:58;;;;;;;;;;;;;;;;;;5017348;28;19932;-78
2023/08/09 08:12:26;;;;;;;;;;;;;;;;;;5010246;28;19994;-81
2023/08/09 08:14:52;;;;;;;;;;;;;;;;;;5014624;28;19929;-79
2023/08/09 08:17:18;;;;;;;;;;;;;;;;;;5034278;28;19936;-83
2023/08/09 08:19:44;;;;;;;;;;;;;;;;;;5032511;28;20750;-77
2023/08/09 08:22:10;;;;;;;;;;;;;;;;;;5034225;28;19935;-81
2023/08/09 08:24:35;;;;;;;;;;;;;;;;;;5018375;28;19933;-82
2023/08/09 08:27:01;;;;;;;;;;;;;;;;;;5016727;28;20865;-82
2023/08/09 08:29:27;;;;;;;;;;;;;;;;;;5033970;28;19932;-82
2023/08/09 08:31:53;;;;;;;;;;;;;;;;;;5015682;28;20351;-79
2023/08/09 08:34:22;;;;;;;;;;;;;;;;;;5014890;28;19933;-81
2023/08/09 08:36:48;;;;;;;;;;;;;;;;;;5017144;28;20075;-80
2023/08/09 08:39:15;;;;;;;;;;;;;;;;;;5015683;28;20366;-80
2023/08/09 08:41:41;;;;;;;;;;;;;;;;;;5000212;28;19929;-81
2023/08/09 08:44:07;;;;;;;;;;;;;;;;;;5038250;28;19924;-80
2023/08/09 08:46:33;;;;;;;;;;;;;;;;;;5016452;28;19972;-80
2023/08/09 08:48:59;;;;;;;;;;;;;;;;;;5015575;28;20380;-82
2023/08/09 08:51:25;;;;;;;;;;;;;;;;;;5034328;28;19933;-78
2023/08/09 08:53:58;;;;;;;;;;;;;;;;;;5028959;28;19925;-79
2023/08/09 08:56:24;;;;;;;;;;;;;;;;;;5023448;28;20399;-82
2023/08/09 08:58:50;;;;;;;;;;;;;;;;;;5028621;28;19935;-78
2023/08/09 09:01:16;;;;;;;;;;;;;;;;;;5031798;28;19936;-82
2023/08/09 09:03:42;;;;;;;;;;;;;;;;;;5036070;28;20303;-80
2023/08/09 09:06:10;;;;;;;;;;;;;;;;;;5014891;28;19931;-78
2023/08/09 09:08:35;;;;;;;;;;;;;;;;;;5017886;28;19929;-76
2023/08/09 09:11:01;;;;;;;;;;;;;;;;;;5018477;28;20034;-78
2023/08/09 09:13:27;;;;;;;;;;;;;;;;;;5034929;28;19971;-74
2023/08/09 09:15:54;;;;;;;;;;;;;;;;;;5018145;28;20426;-75
2023/08/09 09:18:20;;;;;;;;;;;;;;;;;;5035788;28;19939;-74
2023/08/09 09:20:46;;;;;;;;;;;;;;;;;;5037189;28;20011;-76
2023/08/09 09:23:12;;;;;;;;;;;;;;;;;;5015897;28;19933;-77
2023/08/09 09:25:38;;;;;;;;;;;;;;;;;;5030230;28;20019;-76
2023/08/09 09:28:04;;;;;;;;;;;;;;;;;;5015476;28;19929;-77
2023/08/09 09:30:31;;;;;;;;;;;;;;;;;;5017736;28;20375;-76
2023/08/09 09:32:57;;;;;;;;;;;;;;;;;;4983548;28;20291;-76
2023/08/09 09:35:23;;;;;;;;;;;;;;;;;;4985723;28;19947;-75
2023/08/09 09:37:50;;;;;;;;;;;;;;;;;;5037061;28;19982;-75
2023/08/09 09:40:16;;;;;;;;;;;;;;;;;;5004127;28;20379;-76
2023/08/09 09:42:42;;;;;;;;;;;;;;;;;;5032878;28;19928;-77
2023/08/09 09:45:08;;;;;;;;;;;;;;;;;;5016670;28;19939;-79
2023/08/09 09:47:34;;;;;;;;;;;;;;;;;;5037838;28;20429;-80
2023/08/09 09:50:01;;;;;;;;;;;;;;;;;;5034566;28;19932;-82
2023/08/09 09:52:28;;;;;;;;;;;;;;;;;;5038619;28;20323;-78
2023/08/09 09:54:54;;;;;;;;;;;;;;;;;;5035044;28;20223;-80
2023/08/09 09:57:20;;;;;;;;;;;;;;;;;;5035203;28;19983;-81
2023/08/09 09:59:45;;;;;;;;;;;;;;;;;;5018153;28;19925;-80
2023/08/09 10:02:11;;;;;;;;;;;;;;;;;;5024097;28;19928;-82
2023/08/09 10:04:37;;;;;;;;;;;;;;;;;;5021398;28;19928;-80
2023/08/09 10:07:03;;;;;;;;;;;;;;;;;;5020966;28;19928;-79
2023/08/09 10:09:29;;;;;;;;;;;;;;;;;;5039406;28;19929;-81
2023/08/09 10:11:55;;;;;;;;;;;;;;;;;;5019737;28;20444;-81
2023/08/09 10:14:21;;;;;;;;;;;;;;;;;;5038732;28;20113;-81
2023/08/09 10:16:47;;;;;;;;;;;;;;;;;;5015904;28;20051;-82
2023/08/09 10:19:14;;;;;;;;;;;;;;;;;;5012720;28;20031;-81
2023/08/09 10:21:41;;;;;;;;;;;;;;;;;;5014891;28;19991;-80
2023/08/09 10:24:07;;;;;;;;;;;;;;;;;;5014004;28;19933;-83
2023/08/09 10:26:33;;;;;;;;;;;;;;;;;;5013174;28;19929;-83
2023/08/09 10:28:59;;;;;;;;;;;;;;;;;;5029280;28;20063;-80
2023/08/09 10:31:24;;;;;;;;;;;;;;;;;;5013952;28;19929;-84
2023/08/09 10:33:50;;;;;;;;;;;;;;;;;;5008511;28;20391;-83
2023/08/09 10:36:19;;;;;;;;;;;;;;;;;;5010474;28;19933;-83
2023/08/09 10:38:45;;;;;;;;;;;;;;;;;;5019150;28;19936;-81
2023/08/09 10:41:11;;;;;;;;;;;;;;;;;;5018418;28;19925;-83
2023/08/09 10:43:37;;;;;;;;;;;;;;;;;;5013482;28;19999;-81
2023/08/09 10:46:03;;;;;;;;;;;;;;;;;;5016122;28;20530;-81
2023/08/09 10:48:29;;;;;;;;;;;;;;;;;;5011486;28;20055;-79
2023/08/09 10:50:55;;;;;;;;;;;;;;;;;;4996153;28;19929;-84
2023/08/09 10:53:21;;;;;;;;;;;;;;;;;;5006259;28;19926;-83
2023/08/09 10:55:47;;;;;;;;;;;;;;;;;;5001889;28;19944;-81
2023/08/09 10:58:13;;;;;;;;;;;;;;;;;;5017990;28;19929;-80
2023/08/09 11:00:39;;;;;;;;;;;;;;;;;;5017727;28;19940;-79
2023/08/09 11:03:05;;;;;;;;;;;;;;;;;;5009803;28;19982;-78
2023/08/09 11:05:31;;;;;;;;;;;;;;;;;;5011292;28;19933;-77
2023/08/09 11:07:57;;;;;;;;;;;;;;;;;;5012908;28;19936;-78
2023/08/09 11:10:23;;;;;;;;;;;;;;;;;;5013004;28;20751;-80
2023/08/09 11:12:49;;;;;;;;;;;;;;;;;;5008419;28;20141;-79
2023/08/09 11:15:15;;;;;;;;;;;;;;;;;;5012531;28;20282;-79
2023/08/09 11:17:41;;;;;;;;;;;;;;;;;;5015449;28;20461;-79
2023/08/09 11:20:07;;;;;;;;;;;;;;;;;;5011793;28;20043;-79
2023/08/09 11:22:33;;;;;;;;;;;;;;;;;;5002281;28;20296;-77
2023/08/09 11:24:58;;;;;;;;;;;;;;;;;;5014120;28;19925;-79
2023/08/09 11:27:24;;;;;;;;;;;;;;;;;;4999132;28;20499;-76
2023/08/09 11:29:51;;;;;;;;;;;;;;;;;;5018520;28;19921;-77
2023/08/09 11:32:19;;;;;;;;;;;;;;;;;;5017639;28;20011;-82
2023/08/09 11:34:45;;;;;;;;;;;;;;;;;;4998737;28;19936;-78
2023/08/09 11:37:12;;;;;;;;;;;;;;;;;;5015899;28;19929;-76
2023/08/09 11:39:38;;;;;;;;;;;;;;;;;;5017637;28;19929;-77
2023/08/09 11:42:04;;;;;;;;;;;;;;;;;;5016008;28;19936;-77
2023/08/09 11:44:30;;;;;;;;;;;;;;;;;;5015459;28;19929;-75
2023/08/09 11:46:56;;;;;;;;;;;;;;;;;;5015389;28;20012;-81
2023/08/09 11:49:22;;;;;;;;;;;;;;;;;;5016212;28;20041;-78
2023/08/09 11:51:48;;;;;;;;;;;;;;;;;;5012824;28;19925;-80
2023/08/09 11:54:14;;;;;;;;;;;;;;;;;;5016330;28;19940;-80
2023/08/09 11:56:40;;;;;;;;;;;;;;;;;;5015499;28;19948;-78
2023/08/09 11:59:06;;;;;;;;;;;;;;;;;;5020838;28;20004;-75
2023/08/09 12:01:32;;;;;;;;;;;;;;;;;;5017825;28;19929;-75
2023/08/09 12:03:58;;;;;;;;;;;;;;;;;;5017675;28;21801;-75
2023/08/09 12:06:23;;;;;;;;;;;;;;;;;;5015227;28;20003;-78
2023/08/09 12:08:49;;;;;;;;;;;;;;;;;;5030956;28;19925;-80
2023/08/09 12:11:15;;;;;;;;;;;;;;;;;;5018567;28;19960;-81
2023/08/09 12:13:41;;;;;;;;;;;;;;;;;;5015321;28;20589;-78
2023/08/09 12:16:07;;;;;;;;;;;;;;;;;;5013926;28;19925;-77
2023/08/09 12:18:33;;;;;;;;;;;;;;;;;;4998913;28;19929;-75
2023/08/09 12:20:59;;;;;;;;;;;;;;;;;;4999720;28;19929;-76
2023/08/09 12:23:25;;;;;;;;;;;;;;;;;;5019871;28;19925;-75
2023/08/09 12:25:51;;;;;;;;;;;;;;;;;;5018094;28;19929;-76
2023/08/09 12:28:17;;;;;;;;;;;;;;;;;;5018578;28;20016;-76
2023/08/09 12:30:44;;;;;;;;;;;;;;;;;;5015668;28;19935;-74
2023/08/09 12:33:11;;;;;;;;;;;;;;;;;;5015180;28;19983;-76
2023/08/09 12:35:37;;;;;;;;;;;;;;;;;;5028329;28;19932;-76
2023/08/09 12:38:03;;;;;;;;;;;;;;;;;;5018991;28;19980;-74
2023/08/09 12:40:29;;;;;;;;;;;;;;;;;;5020797;28;19935;-74
2023/08/09 12:42:55;;;;;;;;;;;;;;;;;;5006330;28;19929;-74
2023/08/09 12:45:20;;;;;;;;;;;;;;;;;;5022151;28;19952;-77
2023/08/09 12:47:47;;;;;;;;;;;;;;;;;;5034526;28;19925;-78
2023/08/09 12:50:13;;;;;;;;;;;;;;;;;;5019035;28;20382;-77
2023/08/09 12:52:39;;;;;;;;;;;;;;;;;;5019254;28;19929;-77
2023/08/09 12:55:05;;;;;;;;;;;;;;;;;;5002752;28;19936;-78
2023/08/09 12:57:30;;;;;;;;;;;;;;;;;;5033867;28;19928;-80
2023/08/09 12:59:57;;;;;;;;;;;;;;;;;;5021744;28;20004;-80
2023/08/09 13:02:23;;;;;;;;;;;;;;;;;;5020657;28;19932;-76
2023/08/09 13:04:50;;;;;;;;;;;;;;;;;;5082151;22;19928;-75
2023/08/09 13:07:16;;;;;;;;;;;;;;;;;;5061223;28;20246;-81
2023/08/09 13:09:42;;;;;;;;;;;;;;;;;;5059519;28;20444;-80
2023/08/09 13:12:08;;;;;;;;;;;;;;;;;;5057906;28;20011;-79
2023/08/09 13:14:34;;;;;;;;;;;;;;;;;;5070264;28;19944;-75
2023/08/09 13:17:00;;;;;;;;;;;;;;;;;;5064324;28;20117;-76
2023/08/09 13:19:26;;;;;;;;;;;;;;;;;;5077233;28;20342;-75
2023/08/09 13:21:52;;;;;;;;;;;;;;;;;;5058870;28;19929;-80
2023/08/09 13:24:18;;;;;;;;;;;;;;;;;;5094655;27;20473;-79
2023/08/09 13:26:43;;;;;;;;;;;;;;;;;;5093464;28;19990;-77
2023/08/09 13:29:09;;;;;;;;;;;;;;;;;;5055725;28;19928;-82
2023/08/09 13:31:35;;;;;;;;;;;;;;;;;;5059525;28;19935;-80
2023/08/09 13:34:01;;;;;;;;;;;;;;;;;;5065058;28;19924;-77
2023/08/09 13:36:31;;;;;;;;;;;;;;;;;;5056774;28;19924;-82
2023/08/09 13:38:57;;;;;;;;;;;;;;;;;;5075062;28;19932;-79
2023/08/09 13:41:22;;;;;;;;;;;;;;;;;;5060050;28;19950;-78
2023/08/09 13:43:48;;;;;;;;;;;;;;;;;;5088912;28;20326;-80
2023/08/09 13:46:15;;;;;;;;;;;;;;;;;;5058017;28;19939;-78
2023/08/09 13:48:41;;;;;;;;;;;;;;;;;;5092314;28;19928;-79
2023/08/09 13:51:07;;;;;;;;;;;;;;;;;;5062328;28;19929;-78
2023/08/09 13:53:33;;;;;;;;;;;;;;;;;;5091922;28;19947;-80
2023/08/09 13:55:59;;;;;;;;;;;;;;;;;;5093095;28;19979;-79
2023/08/09 13:58:24;;;;;;;;;;;;;;;;;;5064604;28;19935;-78
2023/08/09 14:00:50;;;;;;;;;;;;;;;;;;5061582;28;19932;-77
2023/08/09 14:03:17;;;;;;;;;;;;;;;;;;5062786;28;19928;-81
2023/08/09 14:05:42;;;;;;;;;;;;;;;;;;5082547;28;19928;-83
2023/08/09 14:08:08;;;;;;;;;;;;;;;;;;5082756;28;20329;-79
2023/08/09 14:10:34;;;;;;;;;;;;;;;;;;5065496;28;19970;-80
2023/08/09 14:13:00;;;;;;;;;;;;;;;;;;5057105;28;19924;-77
2023/08/09 14:15:26;;;;;;;;;;;;;;;;;;5070798;28;19931;-78
2023/08/09 14:17:52;;;;;;;;;;;;;;;;;;5079604;28;19939;-81
2023/08/09 14:20:19;;;;;;;;;;;;;;;;;;5061205;28;19932;-79
2023/08/09 14:22:47;;;;;;;;;;;;;;;;;;5068507;28;19960;-78
2023/08/09 14:25:13;;;;;;;;;;;;;;;;;;5079642;28;19924;-82
2023/08/09 14:27:39;;;;;;;;;;;;;;;;;;5096087;28;19938;-82
2023/08/09 14:30:05;;;;;;;;;;;;;;;;;;5053949;28;20023;-82
2023/08/09 14:32:31;;;;;;;;;;;;;;;;;;5081810;28;20650;-82
2023/08/09 14:34:57;;;;;;;;;;;;;;;;;;5059482;28;19932;-81
2023/08/09 14:37:23;;;;;;;;;;;;;;;;;;5080242;28;19935;-78
2023/08/09 14:39:48;;;;;;;;;;;;;;;;;;5079327;28;20443;-80
2023/08/09 14:42:14;;;;;;;;;;;;;;;;;;5063772;28;19924;-80
2023/08/09 14:44:40;;;;;;;;;;;;;;;;;;5061414;28;20429;-82
2023/08/09 14:47:06;;;;;;;;;;;;;;;;;;5064094;28;19928;-80
2023/08/09 14:49:32;;;;;;;;;;;;;;;;;;5080322;28;19928;-77
2023/08/09 14:51:58;;;;;;;;;;;;;;;;;;5094073;28;19935;-83
2023/08/09 14:54:24;;;;;;;;;;;;;;;;;;5050939;28;19932;-84
2023/08/09 14:56:50;;;;;;;;;;;;;;;;;;5058091;28;19927;-83
2023/08/09 14:59:16;;;;;;;;;;;;;;;;;;5080058;28;20551;-81
2023/08/09 15:01:42;;;;;;;;;;;;;;;;;;5072420;28;19924;-84
2023/08/09 15:04:18;;;;;;;;;;;;;;;;;;5059263;28;19931;-82
2023/08/09 15:06:45;;;;;;;;;;;;;;;;;;5075656;28;19928;-78
2023/08/09 15:09:12;;;;;;;;;;;;;;;;;;5040859;28;19975;-82
2023/08/09 15:11:38;;;;;;;;;;;;;;;;;;5080580;28;20377;-78
2023/08/09 15:14:03;;;;;;;;;;;;;;;;;;5058274;28;19928;-78
2023/08/09 15:16:29;;;;;;;;;;;;;;;;;;5059614;28;19943;-78
2023/08/09 15:18:55;;;;;;;;;;;;;;;;;;5064158;28;19971;-79
2023/08/09 15:21:21;;;;;;;;;;;;;;;;;;5061272;28;19973;-83
2023/08/09 15:23:47;;;;;;;;;;;;;;;;;;5079909;28;19924;-81
2023/08/09 15:26:13;;;;;;;;;;;;;;;;;;5067931;28;21652;-77
2023/08/09 15:28:39;;;;;;;;;;;;;;;;;;5060830;28;19936;-77
2023/08/09 15:31:05;;;;;;;;;;;;;;;;;;5065012;28;19928;-83
2023/08/09 15:33:31;;;;;;;;;;;;;;;;;;5061830;28;19938;-79
2023/08/09 15:35:56;;;;;;;;;;;;;;;;;;5058503;28;20007;-80
2023/08/09 15:38:22;;;;;;;;;;;;;;;;;;5066015;28;20881;-84
2023/08/09 15:40:48;;;;;;;;;;;;;;;;;;5094050;28;19928;-81
2023/08/09 15:43:14;;;;;;;;;;;;;;;;;;5063381;28;19952;-85
2023/08/09 15:45:40;;;;;;;;;;;;;;;;;;5059714;28;20371;-82
2023/08/09 15:48:06;;;;;;;;;;;;;;;;;;5078402;28;19973;-82
2023/08/09 15:50:32;;;;;;;;;;;;;;;;;;5062687;28;19928;-84
2023/08/09 15:53:05;;;;;;;;;;;;;;;;;;5046933;28;19986;-78
2023/08/09 15:55:31;;;;;;;;;;;;;;;;;;5059180;28;20390;-81
2023/08/09 15:58:00;;;;;;;;;;;;;;;;;;5061776;28;19974;-85
2023/08/09 16:00:27;;;;;;;;;;;;;;;;;;5075540;28;19974;-79
2023/08/09 16:02:53;;;;;;;;;;;;;;;;;;5063579;28;20056;-85
2023/08/09 16:05:25;;;;;;;;;;;;;;;;;;5059203;28;19928;-79
2023/08/09 16:07:52;;;;;;;;;;;;;;;;;;5045958;28;19978;-83
2023/08/09 16:10:18;;;;;;;;;;;;;;;;;;5062072;28;20423;-80
2023/08/09 16:12:44;;;;;;;;;;;;;;;;;;5056750;28;19932;-81
2023/08/09 16:15:22;;;;;;;;;;;;;;;;;;5052480;28;19944;-81
2023/08/09 16:17:48;;;;;;;;;;;;;;;;;;5041535;28;19939;-84
2023/08/09 16:20:15;;;;;;;;;;;;;;;;;;5077476;28;20049;-81
2023/08/09 16:22:41;;;;;;;;;;;;;;;;;;5063523;28;19973;-79
2023/08/09 16:25:10;;;;;;;;;;;;;;;;;;5058565;28;19928;-81
2023/08/09 16:27:36;;;;;;;;;;;;;;;;;;5069206;28;20397;-77
2023/08/09 16:30:05;;;;;;;;;;;;;;;;;;5078569;28;19932;-80
2023/08/09 16:32:31;;;;;;;;;;;;;;;;;;5079259;28;19985;-81
2023/08/09 16:34:57;;;;;;;;;;;;;;;;;;5082911;28;19986;-77
2023/08/09 16:37:23;;;;;;;;;;;;;;;;;;5074980;28;19932;-77
2023/08/09 16:39:49;;;;;;;;;;;;;;;;;;5056914;28;19928;-77
2023/08/09 16:42:15;;;;;;;;;;;;;;;;;;5056775;28;20311;-79
2023/08/09 16:44:41;;;;;;;;;;;;;;;;;;5076768;28;19928;-84
2023/08/09 16:47:07;;;;;;;;;;;;;;;;;;5089775;28;19935;-78
2023/08/09 16:49:32;;;;;;;;;;;;;;;;;;5058520;28;19928;-75